sensor_id;sensor_type;location;lat;lon;timestamp;P1;durP1;ratioP1;P2;durP2;ratioP2
61091;SDS011;46975;51.898;11.444;2022-12-16T00:00:31;34.03;;;16.35;;
61091;SDS011;46975;51.898;11.444;2022-12-16T00:02:59;40.05;;;15.85;;
61091;SDS011;46975;51.898;11.444;2022-12-16T00:05:25;37.97;;;15.38;;
61091;SDS011;46975;51.898;11.444;2022-12-16T00:07:52;35.42;;;15.98;;
61091;SDS011;46975;51.898;11.444;2022-12-16T00:10:19;35.80;;;14.65;;
61091;SDS011;46975;51.898;11.444;2022-12-16T00:12:45;41.90;;;15.73;;
61091;SDS011;46975;51.898;11.444;2022-12-16T00:15:11;30.42;;;14.73;;
61091;SDS011;46975;51.898;11.444;2022-12-16T00:17:36;39.85;;;16.30;;
61091;SDS011;46975;51.898;11.444;2022-12-16T00:20:03;42.92;;;16.63;;
61091;SDS011;46975;51.898;11.444;2022-12-16T00:22:29;33.42;;;16.00;;
61091;SDS011;46975;51.898;11.444;2022-12-16T00:24:55;42.65;;;17.63;;
61091;SDS011;46975;51.898;11.444;2022-12-16T00:27:20;46.85;;;18.65;;
61091;SDS011;46975;51.898;11.444;2022-12-16T00:29:46;42.92;;;20.80;;
61091;SDS011;46975;51.898;11.444;2022-12-16T00:32:12;46.53;;;17.98;;
61091;SDS011;46975;51.898;11.444;2022-12-16T00:34:37;42.80;;;18.00;;
61091;SDS011;46975;51.898;11.444;2022-12-16T00:37:03;38.63;;;15.30;;
61091;SDS011;46975;51.898;11.444;2022-12-16T00:39:28;33.72;;;14.52;;
61091;SDS011;46975;51.898;11.444;2022-12-16T00:41:54;34.35;;;14.18;;
61091;SDS011;46975;51.898;11.444;2022-12-16T00:44:20;37.75;;;13.98;;
61091;SDS011;46975;51.898;11.444;2022-12-16T00:46:45;37.42;;;14.57;;
61091;SDS011;46975;51.898;11.444;2022-12-16T00:49:11;40.92;;;16.08;;
61091;SDS011;46975;51.898;11.444;2022-12-16T00:51:36;38.05;;;16.35;;
61091;SDS011;46975;51.898;11.444;2022-12-16T00:54:02;39.58;;;16.92;;
61091;SDS011;46975;51.898;11.444;2022-12-16T00:56:28;40.42;;;17.45;;
61091;SDS011;46975;51.898;11.444;2022-12-16T00:58:53;41.15;;;17.15;;
61091;SDS011;46975;51.898;11.444;2022-12-16T01:01:19;37.63;;;14.93;;
61091;SDS011;46975;51.898;11.444;2022-12-16T01:03:45;34.55;;;15.00;;
61091;SDS011;46975;51.898;11.444;2022-12-16T01:06:12;24.75;;;11.18;;
61091;SDS011;46975;51.898;11.444;2022-12-16T01:08:39;17.95;;;7.00;;
61091;SDS011;46975;51.898;11.444;2022-12-16T01:11:12;15.38;;;8.52;;
61091;SDS011;46975;51.898;11.444;2022-12-16T01:13:40;10.23;;;5.57;;
61091;SDS011;46975;51.898;11.444;2022-12-16T01:16:05;17.05;;;6.90;;
61091;SDS011;46975;51.898;11.444;2022-12-16T01:18:31;14.88;;;7.53;;
61091;SDS011;46975;51.898;11.444;2022-12-16T01:21:04;20.33;;;7.50;;
61091;SDS011;46975;51.898;11.444;2022-12-16T01:23:31;13.13;;;5.78;;
61091;SDS011;46975;51.898;11.444;2022-12-16T01:25:57;11.30;;;6.00;;
61091;SDS011;46975;51.898;11.444;2022-12-16T01:28:25;13.90;;;6.63;;
61091;SDS011;46975;51.898;11.444;2022-12-16T01:30:55;12.55;;;6.97;;
61091;SDS011;46975;51.898;11.444;2022-12-16T01:33:25;15.15;;;6.22;;
61091;SDS011;46975;51.898;11.444;2022-12-16T01:35:58;15.02;;;6.88;;
61091;SDS011;46975;51.898;11.444;2022-12-16T01:38:29;13.23;;;7.40;;
61091;SDS011;46975;51.898;11.444;2022-12-16T01:40:55;19.60;;;7.93;;
61091;SDS011;46975;51.898;11.444;2022-12-16T01:43:22;15.85;;;7.70;;
61091;SDS011;46975;51.898;11.444;2022-12-16T01:45:51;16.70;;;9.10;;
61091;SDS011;46975;51.898;11.444;2022-12-16T01:56:19;17.08;;;7.45;;
61091;SDS011;46975;51.898;11.444;2022-12-16T01:58:47;19.30;;;7.63;;
61091;SDS011;46975;51.898;11.444;2022-12-16T02:01:13;18.02;;;7.50;;
61091;SDS011;46975;51.898;11.444;2022-12-16T02:03:40;18.58;;;9.30;;
61091;SDS011;46975;51.898;11.444;2022-12-16T02:06:07;18.40;;;10.30;;
61091;SDS011;46975;51.898;11.444;2022-12-16T02:08:32;21.23;;;8.88;;
61091;SDS011;46975;51.898;11.444;2022-12-16T02:16:45;18.08;;;10.52;;
61091;SDS011;46975;51.898;11.444;2022-12-16T02:21:51;16.95;;;8.30;;
61091;SDS011;46975;51.898;11.444;2022-12-16T02:30:22;18.30;;;8.43;;
61091;SDS011;46975;51.898;11.444;2022-12-16T02:38:46;11.73;;;5.22;;
61091;SDS011;46975;51.898;11.444;2022-12-16T02:41:21;13.45;;;5.75;;
61091;SDS011;46975;51.898;11.444;2022-12-16T02:46:19;14.63;;;7.35;;
61091;SDS011;46975;51.898;11.444;2022-12-16T02:48:51;17.77;;;8.48;;
61091;SDS011;46975;51.898;11.444;2022-12-16T02:51:17;17.67;;;8.48;;
61091;SDS011;46975;51.898;11.444;2022-12-16T02:53:44;24.17;;;10.25;;
61091;SDS011;46975;51.898;11.444;2022-12-16T02:56:16;23.05;;;11.25;;
61091;SDS011;46975;51.898;11.444;2022-12-16T03:01:45;23.45;;;11.38;;
61091;SDS011;46975;51.898;11.444;2022-12-16T03:07:00;26.40;;;12.15;;
61091;SDS011;46975;51.898;11.444;2022-12-16T03:09:31;36.95;;;15.25;;
61091;SDS011;46975;51.898;11.444;2022-12-16T03:11:58;21.25;;;12.02;;
61091;SDS011;46975;51.898;11.444;2022-12-16T03:14:29;31.70;;;14.32;;
61091;SDS011;46975;51.898;11.444;2022-12-16T03:16:58;47.25;;;16.08;;
61091;SDS011;46975;51.898;11.444;2022-12-16T03:19:24;42.17;;;17.00;;
61091;SDS011;46975;51.898;11.444;2022-12-16T03:24:26;36.28;;;15.88;;
61091;SDS011;46975;51.898;11.444;2022-12-16T03:30:01;47.95;;;19.20;;
61091;SDS011;46975;51.898;11.444;2022-12-16T03:32:47;73.40;;;21.33;;
61091;SDS011;46975;51.898;11.444;2022-12-16T03:35:36;50.55;;;20.75;;
61091;SDS011;46975;51.898;11.444;2022-12-16T03:38:07;42.30;;;17.05;;
61091;SDS011;46975;51.898;11.444;2022-12-16T03:40:35;45.63;;;16.10;;
61091;SDS011;46975;51.898;11.444;2022-12-16T03:43:05;41.13;;;15.75;;
61091;SDS011;46975;51.898;11.444;2022-12-16T03:45:34;42.00;;;15.02;;
61091;SDS011;46975;51.898;11.444;2022-12-16T03:48:02;42.53;;;17.20;;
61091;SDS011;46975;51.898;11.444;2022-12-16T03:50:31;39.90;;;16.98;;
61091;SDS011;46975;51.898;11.444;2022-12-16T03:52:58;40.80;;;17.33;;
61091;SDS011;46975;51.898;11.444;2022-12-16T03:55:24;38.15;;;16.30;;
61091;SDS011;46975;51.898;11.444;2022-12-16T03:57:50;39.13;;;16.30;;
61091;SDS011;46975;51.898;11.444;2022-12-16T04:00:16;28.95;;;14.73;;
61091;SDS011;46975;51.898;11.444;2022-12-16T04:02:42;35.47;;;12.73;;
61091;SDS011;46975;51.898;11.444;2022-12-16T04:05:08;39.00;;;15.38;;
61091;SDS011;46975;51.898;11.444;2022-12-16T04:07:34;41.97;;;17.00;;
61091;SDS011;46975;51.898;11.444;2022-12-16T04:10:00;40.45;;;17.63;;
61091;SDS011;46975;51.898;11.444;2022-12-16T04:12:25;50.80;;;20.90;;
61091;SDS011;46975;51.898;11.444;2022-12-16T04:15:09;68.80;;;24.88;;
61091;SDS011;46975;51.898;11.444;2022-12-16T04:18:02;38.65;;;17.85;;
61091;SDS011;46975;51.898;11.444;2022-12-16T04:20:51;27.23;;;14.25;;
61091;SDS011;46975;51.898;11.444;2022-12-16T04:23:41;19.23;;;9.15;;
61091;SDS011;46975;51.898;11.444;2022-12-16T04:26:33;21.38;;;9.18;;
61091;SDS011;46975;51.898;11.444;2022-12-16T04:29:18;19.10;;;9.07;;
61091;SDS011;46975;51.898;11.444;2022-12-16T04:31:43;17.65;;;8.93;;
61091;SDS011;46975;51.898;11.444;2022-12-16T04:34:09;22.73;;;9.40;;
61091;SDS011;46975;51.898;11.444;2022-12-16T04:37:00;16.88;;;7.68;;
61091;SDS011;46975;51.898;11.444;2022-12-16T04:39:44;19.42;;;9.18;;
61091;SDS011;46975;51.898;11.444;2022-12-16T04:42:30;20.65;;;9.63;;
61091;SDS011;46975;51.898;11.444;2022-12-16T04:45:14;21.35;;;9.70;;
61091;SDS011;46975;51.898;11.444;2022-12-16T04:47:59;23.98;;;9.20;;
61091;SDS011;46975;51.898;11.444;2022-12-16T04:50:43;21.42;;;10.85;;
61091;SDS011;46975;51.898;11.444;2022-12-16T04:53:28;22.65;;;9.95;;
61091;SDS011;46975;51.898;11.444;2022-12-16T04:56:13;18.55;;;9.52;;
61091;SDS011;46975;51.898;11.444;2022-12-16T04:58:57;22.85;;;9.32;;
61091;SDS011;46975;51.898;11.444;2022-12-16T05:01:41;19.83;;;9.15;;
61091;SDS011;46975;51.898;11.444;2022-12-16T05:04:25;20.35;;;10.77;;
61091;SDS011;46975;51.898;11.444;2022-12-16T05:07:09;20.67;;;9.70;;
61091;SDS011;46975;51.898;11.444;2022-12-16T05:09:54;26.20;;;10.10;;
61091;SDS011;46975;51.898;11.444;2022-12-16T05:12:38;23.50;;;10.43;;
61091;SDS011;46975;51.898;11.444;2022-12-16T05:15:22;25.88;;;12.40;;
61091;SDS011;46975;51.898;11.444;2022-12-16T05:18:09;28.48;;;13.75;;
61091;SDS011;46975;51.898;11.444;2022-12-16T05:23:39;28.25;;;12.57;;
61091;SDS011;46975;51.898;11.444;2022-12-16T05:26:23;28.05;;;11.50;;
61091;SDS011;46975;51.898;11.444;2022-12-16T05:29:07;26.95;;;10.55;;
61091;SDS011;46975;51.898;11.444;2022-12-16T05:31:52;24.77;;;10.65;;
61091;SDS011;46975;51.898;11.444;2022-12-16T05:34:36;30.77;;;12.55;;
61091;SDS011;46975;51.898;11.444;2022-12-16T05:37:20;26.45;;;11.55;;
61091;SDS011;46975;51.898;11.444;2022-12-16T05:40:04;29.30;;;12.43;;
61091;SDS011;46975;51.898;11.444;2022-12-16T05:42:48;18.17;;;9.45;;
61091;SDS011;46975;51.898;11.444;2022-12-16T05:45:32;15.75;;;8.65;;
61091;SDS011;46975;51.898;11.444;2022-12-16T05:48:16;15.00;;;6.72;;
61091;SDS011;46975;51.898;11.444;2022-12-16T05:51:00;15.82;;;7.57;;
61091;SDS011;46975;51.898;11.444;2022-12-16T05:53:44;31.23;;;10.18;;
61091;SDS011;46975;51.898;11.444;2022-12-16T05:56:28;20.15;;;9.95;;
61091;SDS011;46975;51.898;11.444;2022-12-16T05:59:12;27.95;;;10.23;;
61091;SDS011;46975;51.898;11.444;2022-12-16T06:01:56;33.25;;;12.15;;
61091;SDS011;46975;51.898;11.444;2022-12-16T06:04:40;31.88;;;14.02;;
61091;SDS011;46975;51.898;11.444;2022-12-16T06:07:24;31.08;;;12.27;;
61091;SDS011;46975;51.898;11.444;2022-12-16T06:10:08;27.65;;;9.90;;
61091;SDS011;46975;51.898;11.444;2022-12-16T06:12:53;27.17;;;11.00;;
61091;SDS011;46975;51.898;11.444;2022-12-16T06:15:37;25.73;;;10.95;;
61091;SDS011;46975;51.898;11.444;2022-12-16T06:18:21;29.98;;;11.95;;
61091;SDS011;46975;51.898;11.444;2022-12-16T06:21:05;26.38;;;10.70;;
61091;SDS011;46975;51.898;11.444;2022-12-16T06:23:49;37.55;;;10.63;;
61091;SDS011;46975;51.898;11.444;2022-12-16T06:26:34;33.50;;;9.65;;
61091;SDS011;46975;51.898;11.444;2022-12-16T06:29:18;25.58;;;11.10;;
61091;SDS011;46975;51.898;11.444;2022-12-16T06:32:02;27.55;;;12.13;;
61091;SDS011;46975;51.898;11.444;2022-12-16T06:34:46;27.65;;;10.32;;
61091;SDS011;46975;51.898;11.444;2022-12-16T06:37:31;31.70;;;10.57;;
61091;SDS011;46975;51.898;11.444;2022-12-16T06:40:16;28.05;;;11.15;;
61091;SDS011;46975;51.898;11.444;2022-12-16T06:43:00;18.83;;;9.70;;
61091;SDS011;46975;51.898;11.444;2022-12-16T06:45:44;24.35;;;9.98;;
61091;SDS011;46975;51.898;11.444;2022-12-16T06:48:28;23.17;;;10.80;;
61091;SDS011;46975;51.898;11.444;2022-12-16T06:51:13;31.17;;;11.30;;
61091;SDS011;46975;51.898;11.444;2022-12-16T06:53:57;26.60;;;12.50;;
61091;SDS011;46975;51.898;11.444;2022-12-16T06:56:41;38.70;;;14.52;;
61091;SDS011;46975;51.898;11.444;2022-12-16T06:59:25;35.10;;;13.38;;
61091;SDS011;46975;51.898;11.444;2022-12-16T07:02:09;39.13;;;16.90;;
61091;SDS011;46975;51.898;11.444;2022-12-16T07:04:54;56.80;;;22.58;;
61091;SDS011;46975;51.898;11.444;2022-12-16T07:07:38;58.28;;;23.40;;
61091;SDS011;46975;51.898;11.444;2022-12-16T07:10:29;51.53;;;19.13;;
61091;SDS011;46975;51.898;11.444;2022-12-16T07:13:13;56.55;;;19.80;;
61091;SDS011;46975;51.898;11.444;2022-12-16T07:15:58;52.42;;;21.42;;
61091;SDS011;46975;51.898;11.444;2022-12-16T07:18:42;55.00;;;21.27;;
61091;SDS011;46975;51.898;11.444;2022-12-16T07:21:26;32.45;;;14.93;;
61091;SDS011;46975;51.898;11.444;2022-12-16T07:24:10;31.30;;;14.38;;
61091;SDS011;46975;51.898;11.444;2022-12-16T07:26:54;58.17;;;21.40;;
61091;SDS011;46975;51.898;11.444;2022-12-16T07:29:38;57.15;;;23.00;;
61091;SDS011;46975;51.898;11.444;2022-12-16T07:32:22;72.25;;;27.00;;
61091;SDS011;46975;51.898;11.444;2022-12-16T07:35:06;60.20;;;25.10;;
61091;SDS011;46975;51.898;11.444;2022-12-16T07:37:50;65.03;;;24.23;;
61091;SDS011;46975;51.898;11.444;2022-12-16T07:40:34;65.60;;;25.65;;
61091;SDS011;46975;51.898;11.444;2022-12-16T07:43:19;64.32;;;25.50;;
61091;SDS011;46975;51.898;11.444;2022-12-16T07:46:03;61.60;;;24.50;;
61091;SDS011;46975;51.898;11.444;2022-12-16T07:48:47;55.08;;;21.27;;
61091;SDS011;46975;51.898;11.444;2022-12-16T07:51:31;53.05;;;22.98;;
61091;SDS011;46975;51.898;11.444;2022-12-16T07:54:15;47.22;;;19.77;;
61091;SDS011;46975;51.898;11.444;2022-12-16T07:56:59;35.15;;;15.65;;
61091;SDS011;46975;51.898;11.444;2022-12-16T07:59:43;29.27;;;13.00;;
61091;SDS011;46975;51.898;11.444;2022-12-16T08:02:27;24.48;;;12.55;;
61091;SDS011;46975;51.898;11.444;2022-12-16T08:05:11;28.90;;;12.70;;
61091;SDS011;46975;51.898;11.444;2022-12-16T08:07:55;27.50;;;12.23;;
61091;SDS011;46975;51.898;11.444;2022-12-16T08:10:39;23.63;;;12.30;;
61091;SDS011;46975;51.898;11.444;2022-12-16T08:13:24;26.50;;;12.50;;
61091;SDS011;46975;51.898;11.444;2022-12-16T08:16:08;25.15;;;11.27;;
61091;SDS011;46975;51.898;11.444;2022-12-16T08:18:52;27.58;;;12.52;;
61091;SDS011;46975;51.898;11.444;2022-12-16T08:21:36;21.08;;;10.60;;
61091;SDS011;46975;51.898;11.444;2022-12-16T08:24:21;25.48;;;11.32;;
61091;SDS011;46975;51.898;11.444;2022-12-16T08:27:05;24.17;;;10.30;;
61091;SDS011;46975;51.898;11.444;2022-12-16T08:29:49;19.30;;;10.43;;
61091;SDS011;46975;51.898;11.444;2022-12-16T08:32:33;23.42;;;11.85;;
61091;SDS011;46975;51.898;11.444;2022-12-16T08:35:17;18.63;;;8.93;;
61091;SDS011;46975;51.898;11.444;2022-12-16T08:38:01;23.23;;;9.57;;
61091;SDS011;46975;51.898;11.444;2022-12-16T08:40:45;19.73;;;9.32;;
61091;SDS011;46975;51.898;11.444;2022-12-16T08:43:30;26.17;;;12.25;;
61091;SDS011;46975;51.898;11.444;2022-12-16T08:46:15;28.70;;;12.20;;
61091;SDS011;46975;51.898;11.444;2022-12-16T08:48:59;32.85;;;15.38;;
61091;SDS011;46975;51.898;11.444;2022-12-16T08:51:43;49.28;;;24.00;;
61091;SDS011;46975;51.898;11.444;2022-12-16T08:54:27;52.10;;;28.00;;
61091;SDS011;46975;51.898;11.444;2022-12-16T08:57:12;76.53;;;31.13;;
61091;SDS011;46975;51.898;11.444;2022-12-16T08:59:56;50.90;;;25.70;;
61091;SDS011;46975;51.898;11.444;2022-12-16T09:02:39;45.83;;;19.67;;
61091;SDS011;46975;51.898;11.444;2022-12-16T09:05:24;44.63;;;19.88;;
61091;SDS011;46975;51.898;11.444;2022-12-16T09:08:08;33.30;;;14.63;;
61091;SDS011;46975;51.898;11.444;2022-12-16T09:10:52;34.45;;;16.20;;
61091;SDS011;46975;51.898;11.444;2022-12-16T09:13:36;37.30;;;18.55;;
61091;SDS011;46975;51.898;11.444;2022-12-16T09:16:20;32.78;;;16.67;;
61091;SDS011;46975;51.898;11.444;2022-12-16T09:19:04;29.70;;;15.32;;
61091;SDS011;46975;51.898;11.444;2022-12-16T09:21:48;31.90;;;16.40;;
61091;SDS011;46975;51.898;11.444;2022-12-16T09:24:32;26.88;;;13.57;;
61091;SDS011;46975;51.898;11.444;2022-12-16T09:27:16;26.65;;;13.75;;
61091;SDS011;46975;51.898;11.444;2022-12-16T09:30:00;24.88;;;13.45;;
61091;SDS011;46975;51.898;11.444;2022-12-16T09:32:44;23.55;;;11.48;;
61091;SDS011;46975;51.898;11.444;2022-12-16T09:35:29;27.75;;;13.85;;
61091;SDS011;46975;51.898;11.444;2022-12-16T09:38:13;33.13;;;12.90;;
61091;SDS011;46975;51.898;11.444;2022-12-16T09:40:59;34.05;;;14.52;;
61091;SDS011;46975;51.898;11.444;2022-12-16T09:44:20;33.40;;;15.63;;
61091;SDS011;46975;51.898;11.444;2022-12-16T09:50:02;41.72;;;19.20;;
61091;SDS011;46975;51.898;11.444;2022-12-16T09:52:51;42.53;;;17.83;;
61091;SDS011;46975;51.898;11.444;2022-12-16T09:55:42;39.60;;;16.35;;
61091;SDS011;46975;51.898;11.444;2022-12-16T09:58:29;34.05;;;16.35;;
61091;SDS011;46975;51.898;11.444;2022-12-16T10:01:22;40.35;;;18.02;;
61091;SDS011;46975;51.898;11.444;2022-12-16T10:04:07;35.78;;;17.77;;
61091;SDS011;46975;51.898;11.444;2022-12-16T10:06:52;33.30;;;16.75;;
61091;SDS011;46975;51.898;11.444;2022-12-16T10:09:48;28.23;;;14.25;;
61091;SDS011;46975;51.898;11.444;2022-12-16T10:16:33;27.65;;;13.65;;
61091;SDS011;46975;51.898;11.444;2022-12-16T10:22:34;24.17;;;13.18;;
61091;SDS011;46975;51.898;11.444;2022-12-16T10:25:28;27.65;;;13.30;;
61091;SDS011;46975;51.898;11.444;2022-12-16T10:28:26;27.52;;;14.45;;
61091;SDS011;46975;51.898;11.444;2022-12-16T10:31:26;34.10;;;16.30;;
61091;SDS011;46975;51.898;11.444;2022-12-16T10:34:13;26.67;;;14.95;;
61091;SDS011;46975;51.898;11.444;2022-12-16T10:39:46;24.48;;;13.45;;
61091;SDS011;46975;51.898;11.444;2022-12-16T10:42:45;30.08;;;14.98;;
61091;SDS011;46975;51.898;11.444;2022-12-16T10:45:37;27.00;;;14.45;;
61091;SDS011;46975;51.898;11.444;2022-12-16T10:48:26;34.67;;;15.45;;
61091;SDS011;46975;51.898;11.444;2022-12-16T10:51:15;33.03;;;15.30;;
61091;SDS011;46975;51.898;11.444;2022-12-16T10:54:24;31.77;;;16.35;;
61091;SDS011;46975;51.898;11.444;2022-12-16T11:00:45;26.38;;;15.13;;
61091;SDS011;46975;51.898;11.444;2022-12-16T11:03:34;31.75;;;15.70;;
61091;SDS011;46975;51.898;11.444;2022-12-16T11:06:21;29.60;;;15.75;;
61091;SDS011;46975;51.898;11.444;2022-12-16T11:18:05;33.00;;;16.27;;
61091;SDS011;46975;51.898;11.444;2022-12-16T11:21:19;28.20;;;16.30;;
61091;SDS011;46975;51.898;11.444;2022-12-16T11:24:13;29.75;;;16.60;;
61091;SDS011;46975;51.898;11.444;2022-12-16T11:27:00;34.00;;;16.58;;
61091;SDS011;46975;51.898;11.444;2022-12-16T11:29:53;28.63;;;16.60;;
61091;SDS011;46975;51.898;11.444;2022-12-16T11:32:52;33.53;;;17.27;;
61091;SDS011;46975;51.898;11.444;2022-12-16T11:35:40;35.88;;;16.67;;
61091;SDS011;46975;51.898;11.444;2022-12-16T11:41:25;36.10;;;17.33;;
61091;SDS011;46975;51.898;11.444;2022-12-16T11:44:15;30.95;;;16.95;;
61091;SDS011;46975;51.898;11.444;2022-12-16T11:47:53;33.28;;;17.40;;
61091;SDS011;46975;51.898;11.444;2022-12-16T11:50:24;35.10;;;16.42;;
61091;SDS011;46975;51.898;11.444;2022-12-16T11:53:22;35.08;;;18.25;;
61091;SDS011;46975;51.898;11.444;2022-12-16T11:56:19;33.85;;;17.52;;
61091;SDS011;46975;51.898;11.444;2022-12-16T12:02:24;36.20;;;17.77;;
61091;SDS011;46975;51.898;11.444;2022-12-16T12:05:29;30.45;;;16.35;;
61091;SDS011;46975;51.898;11.444;2022-12-16T12:08:23;35.78;;;17.98;;
61091;SDS011;46975;51.898;11.444;2022-12-16T12:11:29;32.00;;;18.48;;
61091;SDS011;46975;51.898;11.444;2022-12-16T12:32:41;37.10;;;17.73;;
61091;SDS011;46975;51.898;11.444;2022-12-16T12:48:21;36.28;;;17.77;;
61091;SDS011;46975;51.898;11.444;2022-12-16T12:57:21;36.25;;;17.85;;
61091;SDS011;46975;51.898;11.444;2022-12-16T13:00:20;38.65;;;18.40;;
61091;SDS011;46975;51.898;11.444;2022-12-16T13:06:00;38.08;;;18.55;;
61091;SDS011;46975;51.898;11.444;2022-12-16T13:11:33;31.95;;;19.15;;
61091;SDS011;46975;51.898;11.444;2022-12-16T13:14:53;33.97;;;16.98;;
61091;SDS011;46975;51.898;11.444;2022-12-16T13:20:37;37.03;;;17.98;;
61091;SDS011;46975;51.898;11.444;2022-12-16T13:23:23;27.70;;;15.73;;
61091;SDS011;46975;51.898;11.444;2022-12-16T13:26:14;29.92;;;15.20;;
61091;SDS011;46975;51.898;11.444;2022-12-16T13:32:17;25.50;;;14.93;;
61091;SDS011;46975;51.898;11.444;2022-12-16T13:35:12;29.13;;;16.13;;
61091;SDS011;46975;51.898;11.444;2022-12-16T13:38:19;28.80;;;15.27;;
61091;SDS011;46975;51.898;11.444;2022-12-16T13:41:05;26.92;;;14.88;;
61091;SDS011;46975;51.898;11.444;2022-12-16T13:48:23;29.95;;;14.93;;
61091;SDS011;46975;51.898;11.444;2022-12-16T13:50:37;28.07;;;15.97;;
61091;SDS011;46975;51.898;11.444;2022-12-16T13:53:27;26.02;;;15.32;;
61091;SDS011;46975;51.898;11.444;2022-12-16T13:56:34;26.65;;;14.40;;
61091;SDS011;46975;51.898;11.444;2022-12-16T13:59:25;28.73;;;15.50;;
61091;SDS011;46975;51.898;11.444;2022-12-16T14:02:16;28.40;;;15.45;;
61091;SDS011;46975;51.898;11.444;2022-12-16T14:05:16;30.27;;;15.07;;
61091;SDS011;46975;51.898;11.444;2022-12-16T14:08:15;29.38;;;15.95;;
61091;SDS011;46975;51.898;11.444;2022-12-16T14:11:06;33.53;;;15.68;;
61091;SDS011;46975;51.898;11.444;2022-12-16T14:17:26;31.02;;;14.85;;
61091;SDS011;46975;51.898;11.444;2022-12-16T14:20:22;31.23;;;16.88;;
61091;SDS011;46975;51.898;11.444;2022-12-16T14:26:30;32.05;;;15.50;;
61091;SDS011;46975;51.898;11.444;2022-12-16T14:29:23;32.35;;;16.05;;
61091;SDS011;46975;51.898;11.444;2022-12-16T14:32:33;33.88;;;16.98;;
61091;SDS011;46975;51.898;11.444;2022-12-16T14:35:19;27.35;;;15.70;;
61091;SDS011;46975;51.898;11.444;2022-12-16T14:38:13;34.33;;;16.15;;
61091;SDS011;46975;51.898;11.444;2022-12-16T14:41:02;33.53;;;15.82;;
61091;SDS011;46975;51.898;11.444;2022-12-16T14:43:46;31.80;;;16.05;;
61091;SDS011;46975;51.898;11.444;2022-12-16T14:46:31;28.80;;;16.88;;
61091;SDS011;46975;51.898;11.444;2022-12-16T14:49:25;32.33;;;15.48;;
61091;SDS011;46975;51.898;11.444;2022-12-16T14:52:32;39.80;;;15.32;;
61091;SDS011;46975;51.898;11.444;2022-12-16T14:55:17;33.22;;;14.90;;
61091;SDS011;46975;51.898;11.444;2022-12-16T14:58:16;31.05;;;15.80;;
61091;SDS011;46975;51.898;11.444;2022-12-16T15:01:04;30.30;;;15.75;;
61091;SDS011;46975;51.898;11.444;2022-12-16T15:03:53;35.10;;;17.98;;
61091;SDS011;46975;51.898;11.444;2022-12-16T15:06:39;30.65;;;15.45;;
61091;SDS011;46975;51.898;11.444;2022-12-16T15:09:31;25.33;;;14.20;;
61091;SDS011;46975;51.898;11.444;2022-12-16T15:12:21;30.55;;;15.57;;
61091;SDS011;46975;51.898;11.444;2022-12-16T15:15:15;27.02;;;16.55;;
61091;SDS011;46975;51.898;11.444;2022-12-16T15:18:23;26.95;;;13.25;;
61091;SDS011;46975;51.898;11.444;2022-12-16T15:21:12;29.27;;;14.93;;
61091;SDS011;46975;51.898;11.444;2022-12-16T15:23:56;26.20;;;14.30;;
61091;SDS011;46975;51.898;11.444;2022-12-16T15:26:40;25.67;;;14.80;;
61091;SDS011;46975;51.898;11.444;2022-12-16T15:40:57;26.08;;;13.93;;
61091;SDS011;46975;51.898;11.444;2022-12-16T15:43:43;22.05;;;12.63;;
61091;SDS011;46975;51.898;11.444;2022-12-16T15:46:28;25.20;;;15.27;;
61091;SDS011;46975;51.898;11.444;2022-12-16T15:49:25;24.08;;;12.55;;
61091;SDS011;46975;51.898;11.444;2022-12-16T15:55:22;26.40;;;13.82;;
61091;SDS011;46975;51.898;11.444;2022-12-16T15:58:12;24.33;;;12.88;;
61091;SDS011;46975;51.898;11.444;2022-12-16T16:00:57;28.73;;;13.85;;
61091;SDS011;46975;51.898;11.444;2022-12-16T16:03:47;22.95;;;13.73;;
61091;SDS011;46975;51.898;11.444;2022-12-16T16:06:32;28.33;;;13.45;;
61091;SDS011;46975;51.898;11.444;2022-12-16T16:09:22;26.30;;;13.55;;
61091;SDS011;46975;51.898;11.444;2022-12-16T16:12:09;24.73;;;13.60;;
61091;SDS011;46975;51.898;11.444;2022-12-16T16:14:54;24.05;;;14.35;;
61091;SDS011;46975;51.898;11.444;2022-12-16T16:17:38;24.20;;;14.23;;
61091;SDS011;46975;51.898;11.444;2022-12-16T16:20:23;23.67;;;13.15;;
61091;SDS011;46975;51.898;11.444;2022-12-16T16:23:08;31.05;;;15.25;;
61091;SDS011;46975;51.898;11.444;2022-12-16T16:25:52;23.65;;;12.90;;
61091;SDS011;46975;51.898;11.444;2022-12-16T16:28:38;29.33;;;14.93;;
61091;SDS011;46975;51.898;11.444;2022-12-16T16:31:23;23.75;;;13.73;;
61091;SDS011;46975;51.898;11.444;2022-12-16T16:34:07;28.20;;;13.95;;
61091;SDS011;46975;51.898;11.444;2022-12-16T16:36:53;23.33;;;13.30;;
61091;SDS011;46975;51.898;11.444;2022-12-16T16:39:38;28.65;;;15.00;;
61091;SDS011;46975;51.898;11.444;2022-12-16T16:42:23;29.13;;;13.05;;
61091;SDS011;46975;51.898;11.444;2022-12-16T16:45:08;25.58;;;13.88;;
61091;SDS011;46975;51.898;11.444;2022-12-16T16:48:04;25.40;;;15.23;;
61091;SDS011;46975;51.898;11.444;2022-12-16T16:50:54;24.33;;;13.55;;
61091;SDS011;46975;51.898;11.444;2022-12-16T16:53:39;25.98;;;14.05;;
61091;SDS011;46975;51.898;11.444;2022-12-16T16:56:24;27.63;;;13.80;;
61091;SDS011;46975;51.898;11.444;2022-12-16T16:59:10;27.55;;;15.32;;
61091;SDS011;46975;51.898;11.444;2022-12-16T17:01:55;24.77;;;13.68;;
61091;SDS011;46975;51.898;11.444;2022-12-16T17:04:41;27.58;;;16.50;;
61091;SDS011;46975;51.898;11.444;2022-12-16T17:07:26;25.10;;;14.90;;
61091;SDS011;46975;51.898;11.444;2022-12-16T17:10:10;24.83;;;14.15;;
61091;SDS011;46975;51.898;11.444;2022-12-16T17:12:54;27.88;;;14.63;;
61091;SDS011;46975;51.898;11.444;2022-12-16T17:15:39;29.55;;;16.05;;
61091;SDS011;46975;51.898;11.444;2022-12-16T17:18:23;27.00;;;13.73;;
61091;SDS011;46975;51.898;11.444;2022-12-16T17:21:08;23.63;;;14.20;;
61091;SDS011;46975;51.898;11.444;2022-12-16T17:23:53;28.38;;;14.45;;
61091;SDS011;46975;51.898;11.444;2022-12-16T17:26:41;29.60;;;14.80;;
61091;SDS011;46975;51.898;11.444;2022-12-16T17:29:27;28.48;;;14.68;;
61091;SDS011;46975;51.898;11.444;2022-12-16T17:32:11;24.95;;;13.07;;
61091;SDS011;46975;51.898;11.444;2022-12-16T17:34:56;24.95;;;13.40;;
61091;SDS011;46975;51.898;11.444;2022-12-16T17:37:41;29.40;;;15.55;;
61091;SDS011;46975;51.898;11.444;2022-12-16T17:40:26;27.95;;;13.77;;
61091;SDS011;46975;51.898;11.444;2022-12-16T17:43:10;24.98;;;12.93;;
61091;SDS011;46975;51.898;11.444;2022-12-16T17:45:55;20.45;;;12.90;;
61091;SDS011;46975;51.898;11.444;2022-12-16T17:48:40;26.75;;;13.98;;
61091;SDS011;46975;51.898;11.444;2022-12-16T17:51:24;21.63;;;13.27;;
61091;SDS011;46975;51.898;11.444;2022-12-16T17:54:08;20.98;;;12.98;;
61091;SDS011;46975;51.898;11.444;2022-12-16T17:56:53;27.48;;;14.18;;
61091;SDS011;46975;51.898;11.444;2022-12-16T17:59:37;25.00;;;13.77;;
61091;SDS011;46975;51.898;11.444;2022-12-16T18:02:21;26.15;;;14.82;;
61091;SDS011;46975;51.898;11.444;2022-12-16T18:05:05;24.42;;;13.88;;
61091;SDS011;46975;51.898;11.444;2022-12-16T18:07:49;26.15;;;13.95;;
61091;SDS011;46975;51.898;11.444;2022-12-16T18:10:33;26.48;;;13.38;;